Tiempo atmosférico en la estación meteorológica de San Clemente, Cuenca (728 m.)



Fecha
DESCASC
Temp. máxima en grados centígrados (hora)
DESCASC
Temp. mínima en grados centígrados (hora)
DESCASC
Temp. media en grados centígrados
DESCASC
Racha de viento máxima en m/sg (hora)
DESCASC
Velocidad máxima media en intervalos de 10 minutos(hora)
DESCASC
Precipitaciones diarias en mm
DESCASC
Precipitaciones de 00:00 a 06:00 en mm
DESCASC
Precipitaciones de 06:00 a 12:00 en mm
DESCASC
Precipitaciones de 12:00 a 18:00 en mm
DESCASC
Precipitaciones de 18:00 a 24:00 en mm
DESCASC
05-04-2020 18.7 (17:10) 7.8 (08:00) 13.3 11.11 (00:20) 6.11 (00:10) 0 0 0 0 0
04-04-2020 15.5 (15:50) 5.1 (07:00) 10.3 15.28 (14:10) 8.06 (14:20) 0 0 0 0 0
03-04-2020 16.4 (17:40) 1.9 (07:50) 9.1 6.39 (17:10) 3.33 (13:40) 0.2 0.2 0 0 0
02-04-2020 15.7 (15:20) 2 (00:00) 8.8 11.39 (17:00) 6.94 (17:30) 4.2 0 0 3.8 0.4
01-04-2020 14.9 (16:30) 5.9 (00:00) 10.4 9.72 (14:40) 6.67 (15:50) 4.2 4 0.2 0 0
31-03-2020 12.6 (17:00) 3.8 (00:00) 8.2 14.17 (01:30) 6.94 (11:00) 12.4 3.6 3 0.6 5.2
30-03-2020 12.8 (13:20) 4.6 (00:00) 8.7 -- (--) -- (--) 6.6 0 0 0.2 6.4
29-03-2020 17 (17:20) 0.6 (00:00) 8.8 -- (--) -- (--) 0 0 0 0 0
28-03-2020 13.4 (16:40) 0.1 (00:00) 6.7 -- (--) -- (--) 0 0 0 0 0
27-03-2020 5.6 (00:00) 2.4 (00:00) 4 12.22 (08:50) 7.78 (11:20) 7.2 0 3.4 2.4 1.4
26-03-2020 14.5 (16:20) 2.7 (00:00) 8.6 12.22 (12:50) 7.22 (12:30) 0 0 0 0 0
25-03-2020 14 (17:20) 1.2 (00:00) 7.6 -- (--) -- (--) 0 0 0 0 0
24-03-2020 11.6 (11:50) 6.3 (00:00) 9 16.67 (13:40) 11.39 (12:10) 2.2 2 0.2 0 0
23-03-2020 13.3 (17:20) 6.7 (00:00) 10 -- (--) -- (--) -- 2.4 0.2 0.4 --
22-03-2020 11.1 (11:50) 3.7 (06:50) 7.4 -- (--) -- (--) 5.6 0 0 2.8 2.8
21-03-2020 9.8 (09:50) 5.4 (00:00) 7.6 -- (--) -- (--) 5 0 0 2.8 2.2
20-03-2020 12.1 (13:40) 6.8 (00:00) 9.5 12.78 (15:30) 7.5 (19:10) 0 0 0 0 0
19-03-2020 13.3 (15:00) 5.3 (00:00) 9.3 11.94 (13:40) 7.78 (18:30) 0 0 0 0 0
18-03-2020 14.5 (15:30) 7.6 (00:00) 11 13.33 (00:40) 8.06 (00:40) 0 0 0 0 0
17-03-2020 13.2 (14:00) 1.4 (00:00) 7.3 14.72 (13:00) 9.44 (21:20) 0 0 0 0 0
16-03-2020 10.7 (00:00) 1.9 (00:00) 6.3 -- (--) -- (--) -- 6.6 -- 0 0.2
15-03-2020 20.5 (15:40) 8.1 (00:00) 14.3 -- (--) -- (--) 7 0 0 5.6 1.4
14-03-2020 22.1 (16:50) 5 (00:00) 13.6 6.39 (15:50) 3.33 (00:10) 0 0 0 0 0
13-03-2020 21 (15:50) 8 (07:30) 14.5 10.28 (12:30) 6.39 (18:10) -- -- 0 0 0
12-03-2020 27.2 (16:10) 6.6 (00:00) 16.9 5.83 (13:40) 4.17 (05:00) 0 0 0 0 0
11-03-2020 26.6 (16:20) 4.6 (00:00) 15.6 5.56 (16:20) 3.33 (11:50) 0 0 0 0 0
10-03-2020 22.4 (16:50) 2.9 (00:00) 12.6 8.61 (13:40) 6.11 (12:50) 0 0 0 0 0
09-03-2020 16.9 (16:10) 1.3 (00:00) 9.1 12.22 (16:30) 8.33 (16:30) 0 0 0 0 0

Gráficas

Temp. máximas Temp. mínimas Temp. medias Precipitaciones Rachas de viento máximas Velocidades máximas media en intervalos de 10 minutos

Datos horarios

Fecha y hora oficial Temperatura (ºC) Velocidad del viento (km/h) Dirección del viento Racha (km/h) Dirección de racha Precipitación (mm) Presión (hPa) Tendencia (hPa) Humedad (%)
2020-04-07 23:00:00 11 14 Sur 26 Sur 0 939.9 1.3 90
2020-04-07 22:00:00 12.3 11 Sur 23 Sudoeste 0 939.7 1.4 85
2020-04-07 21:00:00 13.9 13 Sur 24 Sur 0 938.9 0.8 81
2020-04-07 20:00:00 15.5 12 Sur 26 Sur 0 938.6 0.1 74
2020-04-07 19:00:00 17 15 Sur 29 Sur 0 938.3 -0.7 70
2020-04-07 18:00:00 17.6 12 Sur 26 Sudeste 0 938.1 -1.3 65
2020-04-07 17:00:00 17.3 12 Sur 24 Sur 0 938.5 -1.4 69
2020-04-07 16:00:00 16.1 14 Sur 28 Sur 0 939 -1.1 72
2020-04-07 15:00:00 15.8 14 Sur 25 Sur 0 939.4 -1.1 74
2020-04-07 14:00:00 14.4 16 Sur 26 Sur 0.2 939.9 -0.4 82
2020-04-07 13:00:00 12.9 13 Sudoeste 24 Sur 0 940.1 0.2 86
2020-04-07 12:00:00 11.9 13 Sur 24 Sur 0 940.5 0.9 88
2020-04-07 11:00:00 11.5 13 Sudoeste 25 Sudoeste 0 940.3 1.3 90
2020-04-07 10:00:00 10.9 13 Sudoeste 25 Sudoeste 0 939.9 1.2 93
2020-04-07 09:00:00 10.5 13 Sur 25 Sudoeste 0 939.6 1.2 94
2020-04-07 08:00:00 10.5 12 Sudoeste 26 Sudoeste 0 939 0.5 95
2020-04-07 07:00:00 10.5 11 Sudoeste 28 Sudoeste 0 938.7 0.2 96
2020-04-07 06:00:00 10.5 15 Sudoeste 28 Sudoeste 0 938.4 -0.5 95
2020-04-07 05:00:00 10.8 13 Sudoeste 30 Sudoeste 0 938.5 -0.4 95
2020-04-07 04:00:00 10.9 14 Sudoeste 25 Sudoeste 2 938.5 -0.3 96
2020-04-07 03:00:00 11.2 14 Sudoeste 25 Sur 0 938.9 0 95
2020-04-07 02:00:00 11.3 10 Sur 22 Sudoeste 0 938.9 0 96
2020-04-07 01:00:00 11.4 12 Sudoeste 24 Sudoeste 0 938.8 0.1 96
2020-04-07 00:00:00 12.2 10 Sur 19 Sur 0.2 938.9 1.2 97
2020-04-06 23:00:00 12.9 9 Sudoeste 14 Sudoeste 0 938.9 1.6 97
2020-04-06 22:00:00 12.6 5 Sur 9 Sur 0 938.7 1.3 96
2020-04-06 21:00:00 12.9 6 Sur 9 Sur 0 937.7 0.5 94
2020-04-06 20:00:00 13.8 6 Sur 14 Sur 0.2 937.3 0.3 94
2020-04-06 19:00:00 14.1 6 Sudeste 13 Este 7 937.4 0.2 94
2020-04-06 18:00:00 14 13 Nordeste 24 Norte 2 937.2 -0.4 93
2020-04-06 17:00:00 16.7 10 Noroeste 16 Noroeste 0 937 -0.9 71
2020-04-06 16:00:00 17.5 3 Norte 12 Noroeste 0 937.2 -0.7 65
2020-04-06 15:00:00 15.9 7 Noroeste 16 Norte 0 937.6 -0.1 74
2020-04-06 14:00:00 15.3 10 Norte 16 Nordeste 0 937.9 0.2 72
2020-04-06 13:00:00 14.9 5 Noroeste 15 Oeste 0 937.9 0.8 74
2020-04-06 12:00:00 13 9 Sudoeste 15 Sudoeste 0 937.7 1.1 83
2020-04-06 11:00:00 11.6 8 Sudoeste 19 Sudoeste 0 937.7 1.6 83
2020-04-06 10:00:00 11 10 Sudoeste 17 Sudoeste 0 937.1 1.8 82
2020-04-06 09:00:00 9.5 9 Sur 17 Sur 0 936.6 1.4 87
2020-04-06 08:00:00 8.1 8 Sur 15 Sur 0 936.1 1 91
2020-04-06 07:00:00 7.7 7 Sur 19 Sudoeste 0 935.3 0.4 92
2020-04-06 06:00:00 8.4 8 Sur 22 Sur 0 935.2 -0.1 93
2020-04-06 05:00:00 8.5 10 Sur 24 Sur 0 935.1 0 93
2020-04-06 04:00:00 8.9 12 Sudoeste 23 Sudoeste 0 934.9 0 92
2020-04-06 03:00:00 9.6 8 Sudoeste 24 Sudoeste 0 935.3 0.9 89
2020-04-06 02:00:00 10.4 13 Sur 27 Sur 0 935.1 0.8 86
2020-04-06 01:00:00 11.2 12 Sudoeste 29 Sur 0 934.9 1.1 83
2020-04-06 00:00:00 11.6 13 Sudoeste 30 Sudoeste 0 934.4 1.4 81
2020-04-05 23:00:00 12.6 14 Sudoeste -- -- 0 934.3 1.7 76
2020-04-05 22:00:00 13.6 15 Sudoeste 30 Sur 0 933.8 1.5 70
2020-04-05 21:00:00 14.4 13 Sudoeste 27 Sudoeste 0 933 0.7 64
2020-04-05 20:00:00 16.2 14 Sudoeste 28 Sudoeste 0 932.6 -0.1 58
2020-04-05 19:00:00 17.8 14 Sudoeste 27 Sudoeste 0 932.3 -0.5 50
2020-04-05 18:00:00 18.3 15 Sudoeste 26 Sudoeste 0 932.3 -1.3 49
2020-04-05 17:00:00 18.4 13 Sudoeste 28 Sudoeste 0 932.7 -1.8 46
2020-04-05 16:00:00 18.1 15 Sudoeste 26 Sur 0 932.8 -2 47
2020-04-05 15:00:00 17.2 12 Sur 28 Sudoeste 0 933.6 -1.5 48
2020-04-05 14:00:00 16.5 14 Sudoeste 30 Sudoeste 0 934.5 -0.4 51
2020-04-05 13:00:00 14.5 15 Sudoeste 30 Sudoeste 0 934.8 0.3 58
2020-04-05 12:00:00 13 15 Sudoeste 30 Sur 0 935.1 0.4 60
2020-04-05 11:00:00 11.8 17 Sudoeste 30 Sudoeste 0 934.9 0.7 65
2020-04-05 10:00:00 10 17 Sur 33 Sudoeste 0 934.5 0.8 73
2020-04-05 09:00:00 8.9 15 Sur 24 Sur 0 934.7 1.4 77
2020-04-05 08:00:00 7.8 11 Sur 30 Sur 0 934.2 0.8 81
2020-04-05 07:00:00 8.1 14 Sur 32 Sudoeste 0 933.7 0.2 79
2020-04-05 06:00:00 8.3 17 Sur 33 Sur 0 933.3 -0.5 76
2020-04-05 05:00:00 8.6 18 Sur 35 Sudoeste 0 933.4 -0.6 76
2020-04-05 04:00:00 8.7 18 Sur 36 Sur 0 933.5 -0.5 76
2020-04-05 03:00:00 8.9 18 Sur 35 Sudoeste 0 933.8 0.2 76
2020-04-05 02:00:00 9.1 21 Sudoeste 40 Sudoeste 0 934 0.5 76
2020-04-05 01:00:00 9.4 21 Sudoeste 40 Sudoeste 0 934 0.7 78
2020-04-05 00:00:00 9.5 21 Sudoeste 42 Sur 0 933.6 1.1 76
2020-04-04 23:00:00 10.2 23 Sudoeste 39 Sudoeste 0 933.5 1.4 67
2020-04-04 22:00:00 10.7 18 Sudoeste 38 Sudoeste 0 933.3 1.6 69
2020-04-04 21:00:00 11.6 18 Sudoeste 37 Sudoeste 0 932.5 1 63
2020-04-04 20:00:00 12.6 19 Sudoeste 46 Sudoeste 0 932.1 0.3 57
2020-04-04 19:00:00 13.7 22 Sudoeste 48 Sudoeste 0 931.7 -0.2 52
2020-04-04 18:00:00 14.4 23 Sudoeste 46 Sudoeste 0 931.5 -0.7 49
2020-04-04 17:00:00 14.9 23 Sudoeste 49 Sudoeste 0 931.8 -0.7 49
2020-04-04 16:00:00 15.1 27 Sudoeste 44 Sudoeste 0 931.9 -0.9 48
2020-04-04 15:00:00 15 26 Sudoeste 55 Sudoeste 0 932.2 -1 50
2020-04-04 14:00:00 14.6 27 Sudoeste 50 Sur 0 932.5 -0.8 49
2020-04-04 13:00:00 13.8 26 Sudoeste 51 Sur 0 932.8 -0.2 56
2020-04-04 12:00:00 11.8 22 Sudoeste 40 Sur 0 933.2 0.2 67
2020-04-04 11:00:00 10.2 18 Sudoeste 35 Sudoeste 0 933.3 0.5 74
2020-04-04 10:00:00 8.8 14 Sudoeste 29 Sudoeste 0 933 0.7 80
2020-04-04 09:00:00 6.6 13 Sur 27 Sur 0 933 0.8 88
2020-04-04 08:00:00 5.6 13 Sur 27 Sudoeste 0 932.8 0.3 94
2020-04-04 07:00:00 5.1 12 Sur 24 Sur 0 932.3 -0.2 91
2020-04-04 06:00:00 5.3 12 Sur 19 Sudeste 0 932.2 -0.6 92
2020-04-04 05:00:00 5.3 8 Sudeste 19 Sur 0 932.5 -0.4 91
2020-04-04 04:00:00 6.3 10 Sur 22 Sur 0 932.5 -0.5 90
2020-04-04 03:00:00 6.9 11 Sur 23 Sur 0 932.8 -0.1 91
2020-04-04 02:00:00 7.4 11 Sur 20 Sur 0 932.9 0.5 90
2020-04-04 01:00:00 6.4 9 Sur 12 Sur 0 933 1.1 92
2020-04-04 00:00:00 6.5 6 Sur 14 Sudoeste 0 932.9 1.6 87
2020-04-03 23:00:00 7.7 6 Este 9 Este 0 932.4 1.3 82
2020-04-03 22:00:00 9.4 5 Este 6 Nordeste 0 931.9 0.8 78
2020-04-03 21:00:00 12.1 6 Nordeste 8 Nordeste 0 931.3 0.2 60
2020-04-03 20:00:00 15.6 6 Nordeste 14 Nordeste 0 931.1 -0.2 49
2020-04-03 19:00:00 15.9 6 Norte 16 Norte 0 931.1 -0.4 46
2020-04-03 18:00:00 15.5 6 Noroeste 23 Norte 0 931.1 -0.9 45
2020-04-03 17:00:00 15.8 12 Norte 19 Norte 0 931.3 -1.1 45
2020-04-03 16:00:00 15.3 8 Norte 22 Norte 0 931.5 -1.2 48
2020-04-03 15:00:00 14.2 8 Norte 21 Norte 0 932 -1 52
2020-04-03 14:00:00 13.8 7 Noroeste 21 Norte 0 932.4 -0.4 57
2020-04-03 13:00:00 12.7 8 Norte 21 Noroeste 0 932.7 0.3 64
2020-04-03 12:00:00 11.4 6 Noroeste 11 Noroeste 0 933 0.9 80
2020-04-03 11:00:00 8.8 6 Noroeste 15 Noroeste 0 932.8 1.2 89
2020-04-03 10:00:00 7.4 4 Noroeste 8 Este 0 932.4 1.4 89
2020-04-03 09:00:00 4.4 5 Este 11 Este 0 932.1 1.5 95
2020-04-03 08:00:00 1.9 5 Este 7 Este 0 931.6 1.1 97
2020-04-03 07:00:00 2.2 6 Norte 10 Este 0 931 0.6 96
2020-04-03 06:00:00 2.4 3 Sudeste 6 Este 0 930.6 0.2 95
2020-04-03 05:00:00 3.2 5 Este 9 Este 0 930.5 0 95
2020-04-03 04:00:00 3.9 5 Nordeste 8 Este 0 930.4 -0.3 94
2020-04-03 03:00:00 5.1 2 Este 6 Este 0 930.4 -0.2 94
2020-04-03 02:00:00 6.2 3 Noroeste 11 Sudeste 0 930.5 0.4 94
2020-04-03 01:00:00 6.7 6 Sudeste 9 Sudeste 0.2 930.7 1.1 93
2020-04-03 00:00:00 7.5 4 Sur 13 Sur 0 930.6 2.1 91
2020-04-02 23:00:00 8.2 8 Este 21 Sur 0.2 930.1 2.3 89
2020-04-02 22:00:00 8.9 9 Sur 13 Sur 0 929.6 2.8 82
2020-04-02 21:00:00 9.4 8 Nordeste 14 Nordeste 0 928.5 1.6 83
2020-04-02 20:00:00 10.2 14 Nordeste 22 Nordeste 0 927.8 1.4 79
2020-04-02 19:00:00 10.6 13 Oeste 19 Oeste 0.2 926.8 0.7 79
2020-04-02 18:00:00 8.8 8 Sudoeste 39 Sudeste 3.6 926.9 0.4 90
2020-04-02 17:00:00 11.2 21 Sudeste 41 Sudeste 0.2 926.4 -0.6 71
2020-04-02 16:00:00 13.6 14 Sudoeste 27 Sudoeste 0 926.1 -1.3 58
2020-04-02 15:00:00 14.9 8 Norte 23 Nordeste 0 926.5 -1.2 49
2020-04-02 14:00:00 13.9 7 Sudeste 20 Nordeste 0 927 -0.7 51
2020-04-02 13:00:00 12.2 8 Sudeste 17 Sudeste 0 927.4 0 62
2020-04-02 12:00:00 11.5 6 Este 13 Este 0 927.7 0.5 70
2020-04-02 11:00:00 9.6 8 Este 13 Este 0 927.7 1.1 73
2020-04-02 10:00:00 7.1 5 Este 12 Este 0 927.4 1 85
2020-04-02 09:00:00 4.3 8 Este 14 Este 0 927.2 0.5 91
2020-04-02 08:00:00 2.3 5 Este 10 Este 0 926.6 -0.2 95
2020-04-02 07:00:00 2.4 5 Este 9 Este 0 926.4 -0.6 93
2020-04-02 06:00:00 3.3 6 Este 10 Nordeste 0 926.7 -0.8 93
2020-04-02 05:00:00 4.2 4 Este 13 Norte 0 926.8 -1.1 93
2020-04-02 04:00:00 4.9 11 Norte 13 Norte 0 927 -1.1 93
2020-04-02 03:00:00 6.1 8 Noroeste 10 Norte 0 927.5 -0.8 93
2020-04-02 02:00:00 6.1 9 Norte 13 Norte 0 927.9 -0.2 94
2020-04-02 01:00:00 5.1 2 Noroeste 7 Noroeste 0 928.1 0.4 91
2020-04-02 00:00:00 5.9 3 Noroeste 10 Sur 0 928.3 1.5 90
2020-04-01 23:00:00 6.9 8 Sur 13 Sur 0 928.1 1.8 87
2020-04-01 22:00:00 7.5 9 Norte 13 Norte 0 927.7 1.6 84
2020-04-01 21:00:00 8.9 7 Nordeste 14 Norte 0 926.8 0.5 78
2020-04-01 20:00:00 11.7 11 Norte 29 Norte 0 926.3 -0.1 64
2020-04-01 19:00:00 13.7 16 Norte 35 Norte 0 926.1 -0.6 52
2020-04-01 18:00:00 14.1 21 Norte 35 Norte 0 926.3 -0.8 49
2020-04-01 17:00:00 14.1 22 Norte 34 Norte 0 926.4 -1.2 55
2020-04-01 16:00:00 14 23 Norte 33 Norte 0 926.7 -1.3 55
2020-04-01 15:00:00 13.5 18 Norte 35 Noroeste 0 927.1 -1.1 57
2020-04-01 14:00:00 13.3 20 Norte 32 Norte 0 927.6 -0.6 66
2020-04-01 13:00:00 12.4 19 Norte 30 Norte 0 928 0 67
2020-04-01 12:00:00 10.6 18 Norte 34 Norte 0.2 928.2 0.8 74
2020-04-01 11:00:00 9.8 14 Norte -- -- 0 928.2 1.2 82
2020-04-01 10:00:00 8.9 -- -- -- -- 0 928 1.6 93
2020-04-01 09:00:00 7.8 5 Sudoeste 12 Oeste 0 927.4 0.9 98
2020-04-01 08:00:00 7.6 9 Sudoeste 15 Sudoeste 0 927 0.5 98
2020-04-01 07:00:00 7.7 9 Sudoeste 16 Oeste 0 926.4 -0.2 98
2020-04-01 06:00:00 7.9 11 Sudoeste 17 Oeste 0 926.5 -0.3 98
2020-04-01 05:00:00 8.1 7 Sudoeste 19 Sudoeste 0 926.5 -0.5 97
2020-04-01 04:00:00 8.2 10 Sudoeste 24 Sudoeste 0 926.6 -0.5 97
2020-04-01 03:00:00 8.3 12 Sudoeste 27 Sudoeste 0.2 926.8 0.2 96
2020-04-01 02:00:00 8.6 11 Sudoeste 24 Oeste 1.2 927 0.5 95
2020-04-01 01:00:00 8.6 8 Sudoeste 30 Sudoeste 2.6 927.1 1.2 95
2020-04-01 00:00:00 8.8 18 Sur 35 Sur 0.4 926.6 1.3 95
2020-03-31 23:00:00 9.1 17 Sur 33 Sur 0.8 926.5 1.8 95
2020-03-31 22:00:00 9.3 16 Sur 30 Sur 0 925.9 1.8 93
2020-03-31 21:00:00 9.2 10 Sur 21 Sudoeste 0 925.3 2.1 93
2020-03-31 20:00:00 9.2 12 Sudoeste 46 Oeste 2.8 924.7 1.2 92
2020-03-31 19:00:00 10.9 14 Sudoeste 33 Sudoeste 1.2 924.1 0.6 90
2020-03-31 18:00:00 12.1 18 Sur 37 Sudoeste 0 923.2 -0.6 81
2020-03-31 17:00:00 12.4 21 Sur 37 Sur 0.2 923.5 -0.2 78
2020-03-31 16:00:00 11.9 16 Sudoeste 33 Sudoeste 0 923.5 -0.3 79
2020-03-31 15:00:00 10.3 15 Sudoeste 37 Sudoeste 0.4 923.8 0 81
2020-03-31 14:00:00 10.4 22 Sudoeste 41 Sudoeste 0 923.7 0.1 79
2020-03-31 13:00:00 9.5 24 Sur 40 Sudoeste 0 923.8 0.8 87
2020-03-31 12:00:00 7.8 23 Sudoeste 44 Sudoeste 0.2 923.8 1 91
2020-03-31 11:00:00 6.3 25 Sudoeste 45 Sur 0 923.6 1 92
2020-03-31 10:00:00 5.5 23 Sur 41 Sur 0.2 923 0.2 93
2020-03-31 09:00:00 4.7 19 Sur 39 Sur 0 922.8 0 94
2020-03-31 08:00:00 4.3 21 Sur 37 Sur 1.6 922.6 -0.5 96
2020-03-31 07:00:00 4.1 19 Sur 36 Sudoeste 1 922.8 -0.5 96
2020-03-31 06:00:00 4 17 Sur 40 Sur 1.2 922.8 -1.7 95
2020-03-31 05:00:00 3.9 22 Sur 42 Sur 0.4 923.1 -1.6 94
2020-03-31 04:00:00 4.2 21 Sur 43 Sur 0.2 923.3 -2 94
2020-03-31 03:00:00 4.4 19 Sur 40 Sur 0.8 924.5 -1.4 94
2020-03-31 02:00:00 4.4 22 Sur 51 Sudoeste 0.2 924.7 -1.3 93
2020-03-31 01:00:00 4.4 20 Sur 39 Sur 0.8 925.3 -0.5 94
2020-03-31 00:00:00 4.6 17 Sur 30 Sur 2.8 925.9 0.8 95
2020-03-30 23:00:00 4.7 17 Sur 40 Sur 2.2 926 0.9 95
2020-03-30 22:00:00 5 25 Sur 43 Sur 0.8 925.8 0.3 94
2020-03-30 21:00:00 5.9 21 Sur 42 Sur 0.6 925.1 -0.3 94
2020-03-30 20:00:00 6.3 28 Sur 45 Sur 0 925.1 -0.5 89
2020-03-30 19:00:00 8.1 19 Sur -- -- 0 925.5 -0.7 87
2020-03-30 18:00:00 10.8 -- -- -- -- 0.2 925.4 -1.4 70
2020-03-30 17:00:00 11.3 12 Noroeste 20 Noroeste 0 925.6 -1.5 67
2020-03-30 16:00:00 11 12 Noroeste 19 Noroeste 0 926.2 -1.3 73
2020-03-30 15:00:00 10.7 14 Noroeste 25 Noroeste 0 926.8 -1.4 74
2020-03-30 14:00:00 12.3 16 Noroeste 28 Norte 0 927.1 -1.3 61
2020-03-30 13:00:00 12.2 10 Norte -- -- 0 927.5 -0.7 60
2020-03-30 12:00:00 11.2 5 Noroeste 12 Norte 0 928.2 0.2 62
2020-03-30 11:00:00 9.3 5 Sudeste 15 Este 0 928.4 0.7 68
2020-03-30 10:00:00 8.5 3 Nordeste 8 Norte 0 928.2 0.5 72
2020-03-30 09:00:00 7 4 Norte 9 Este 0 928 0.2 80
2020-03-30 08:00:00 5.9 9 Este 12 Este 0 927.7 -0.6 85
2020-03-30 07:00:00 5.5 4 Norte 9 Norte 0 927.7 -1.2 87
2020-03-30 06:00:00 5.4 6 Nordeste 11 Norte 0 927.8 -1.7 85
2020-03-30 05:00:00 5.5 9 Norte 11 Norte 0 928.3 -1.5 84
2020-03-30 04:00:00 5.5 7 Norte 9 Norte 0 928.9 -1.4 82
2020-03-30 03:00:00 6.4 8 Este 14 Este 0 929.5 -1 80
2020-03-30 02:00:00 7.1 6 Norte -- -- 0 929.8 -0.7 74
2020-03-30 01:00:00 7.2 -- -- -- -- 0 930.3 -0.4 79
2020-03-30 00:00:00 8.9 7 Norte 8 Nordeste 0 930.5 0.1 65
2020-03-29 23:00:00 9.7 9 Norte 10 Norte 0 930.5 0 65
2020-03-29 22:00:00 10.2 11 Noroeste 14 Noroeste 0 930.7 0 64
2020-03-29 21:00:00 11.4 9 Nordeste 13 Nordeste 0 930.4 -0.3 58
2020-03-29 20:00:00 13.6 9 Norte 20 Norte 0 930.5 -0.6 53
2020-03-29 19:00:00 16.4 15 Norte 25 Norte 0 930.7 -1 38
2020-03-29 18:00:00 17 13 Norte -- -- 0 930.7 -1.6 37
2020-03-29 17:00:00 16.6 -- -- -- -- 0 931.1 -1.9 39
2020-03-29 16:00:00 16.3 16 Norte 29 Norte 0 931.7 -2 42
2020-03-29 15:00:00 15.5 17 Norte 30 Norte 0 932.3 -2 46
2020-03-29 14:00:00 14.5 12 Norte 27 Norte 0 933 -1.6 50
2020-03-29 13:00:00 13.2 12 Norte 22 Norte 0 933.7 -0.7 52
2020-03-29 12:00:00 11.4 12 Norte -- -- 0 934.3 -0.1 65
2020-03-29 11:00:00 8.9 -- -- -- -- 0 934.6 0.6 74
2020-03-29 10:00:00 6.6 6 Este 13 Este 0 934.4 0.7 82
2020-03-29 09:00:00 3.1 7 Este 12 Este 0 934.4 0.6 91
2020-03-29 08:00:00 0.7 8 Este 13 Este 0 934 0.1 94
2020-03-29 07:00:00 1 10 Este 14 Este 0 933.7 -0.5 94
2020-03-29 06:00:00 1.5 10 Este 16 Este 0 933.8 -0.9 94
2020-03-29 05:00:00 1.9 11 Este 15 Este 0 933.9 -1 93
2020-03-29 03:00:00 2.3 10 Este 14 Este 0 934.7 -0.1 92
2020-03-29 01:00:00 3.2 8 Este 13 Este 0 934.9 0.4 91
2020-03-29 00:00:00 3.7 5 Este 8 Este 0 934.8 0.6 89
2020-03-28 23:00:00 5.4 5 Este 10 Este 0 934.8 1.2 86
2020-03-28 22:00:00 6.4 2 Sur -- -- 0 934.5 1.4 84
2020-03-28 21:00:00 8.6 6 Oeste -- -- 0 934.2 1.3 71
2020-03-28 20:00:00 9.8 7 Oeste 10 Oeste 0 933.6 1 65
2020-03-28 19:00:00 11.6 5 Sudoeste 11 Sudoeste 0 933.1 0.5 55
2020-03-28 18:00:00 12.7 -- -- -- -- 0 932.9 0 50
2020-03-28 17:00:00 12.4 11 Oeste 20 Oeste 0 932.6 -0.7 55
2020-03-28 16:00:00 12.6 7 Sudoeste -- -- 0 932.6 -1.1 54
2020-03-28 15:00:00 13.3 -- -- -- -- 0 932.9 -0.9 53
2020-03-28 14:00:00 11.3 7 Sur 21 Sur 0 933.3 -0.5 54
2020-03-28 13:00:00 10.6 10 Sur 24 Sur 0 933.7 0.1 52
2020-03-28 12:00:00 10 9 Sudoeste 19 Sudoeste 0 933.8 0.8 64
2020-03-28 11:00:00 8.8 8 Sur 17 Sudoeste 0 933.8 1.1 69
2020-03-28 10:00:00 7.1 8 Sur 14 Sur 0 933.6 1.5 73
2020-03-28 09:00:00 5.1 7 Sur 12 Sur 0 933 1.5 78
2020-03-28 08:00:00 2.2 -- -- -- -- 0 932.7 1.6 88
2020-03-28 07:00:00 0.3 4 Sudeste 12 Sudeste 0 932.1 1.1 94
2020-03-28 06:00:00 0.9 7 Este 16 Sudeste 0 931.5 0.5 92
2020-03-28 05:00:00 2.4 13 Sudeste 22 Sudeste 0 931.1 0.2 92
2020-03-28 04:00:00 3.7 12 Sudeste 23 Sur 0 931 0.2 90
2020-03-28 03:00:00 4.3 13 Sudoeste 23 Sur 0 931 0.2 87
2020-03-28 02:00:00 3.2 9 Sur 18 Sur 0 930.9 0.3 92
2020-03-28 01:00:00 4.1 7 Sur 16 Sur 0 930.8 0.4 90
2020-03-28 00:00:00 3.7 8 Sur 18 Sur 0 930.8 0.7 93
2020-03-27 23:00:00 3.7 12 Sur 32 Sur 0 930.6 1.3 91
2020-03-27 22:00:00 3.7 15 Sur 25 Sur 0 930.4 1.7 93
2020-03-27 21:00:00 3.5 19 Sur 37 Sur 0.2 930.1 2.1 93
2020-03-27 20:00:00 4 15 Sur 31 Sur 0.6 929.3 1.7 93
2020-03-27 19:00:00 4.2 21 Sur 38 Sur 0.6 928.7 1.1 92
2020-03-27 18:00:00 4.4 23 Sur 38 Sur 0.2 928 0.5 91
2020-03-27 17:00:00 4.4 19 Sur 39 Sur 0.2 927.6 -0.3 91
2020-03-27 16:00:00 4.8 20 Sur 40 Sur 0.2 927.6 -0.4 91
2020-03-27 15:00:00 4.6 23 Sur 33 Sur 0.4 927.5 -0.4 90
2020-03-27 14:00:00 3.9 20 Sur 37 Sur 0.8 927.9 0 91
2020-03-27 13:00:00 3.4 21 Sur 39 Sur 0.6 928 0.6 93
2020-03-27 12:00:00 3.4 26 Sur 38 Sur 0.2 927.9 1.4 93
2020-03-27 11:00:00 2.9 27 Sur 40 Sur 1 927.9 1.8 93
2020-03-27 10:00:00 2.7 18 Sur 38 Sur 1.4 927.4 2 94
2020-03-27 09:00:00 2.8 25 Sur 44 Sur 0.8 926.5 1.5 92
2020-03-27 08:00:00 3.8 23 Sur 39 Sur 0 926.1 1 82
2020-03-27 07:00:00 3.8 22 Sur 39 Sur 0 925.4 0 81
2020-03-27 06:00:00 3.9 19 Sur 40 Sur 0 925 -0.6 79
2020-03-27 05:00:00 4.3 21 Sur 38 Sur 0 925.1 -1 88
2020-03-27 04:00:00 4.6 13 Sur 30 Sur 0 925.4 -0.9 87
2020-03-27 03:00:00 4.5 18 Sur 30 Sur 0 925.6 -0.7 90
2020-03-27 02:00:00 4.6 15 Sur 24 Sur 0 926.1 0.1 85
2020-03-27 01:00:00 4.9 12 Sur 26 Sur 0 926.3 1.2 79
2020-03-27 00:00:00 5.6 11 Sur 28 Sur 0 926.3 1.4 74
2020-03-26 23:00:00 6.3 12 Sur 28 Sur 0 926 1.5 72
2020-03-26 22:00:00 6 8 Sudeste 19 Este 0 925.1 1.2 68
2020-03-26 21:00:00 6.4 7 Sudeste 15 Este 0 924.9 1.4 71
2020-03-26 20:00:00 8.5 8 Este 20 Sudeste 0 924.5 1 64
2020-03-26 19:00:00 12 10 Este 26 Nordeste 0 923.9 0.1 42
2020-03-26 18:00:00 14 21 Nordeste 35 Nordeste 0 923.5 -0.5 30
2020-03-26 17:00:00 14.2 21 Nordeste 36 Nordeste 0 923.5 -0.8 30
2020-03-26 16:00:00 14 26 Nordeste 41 Nordeste 0 923.8 -1 30
2020-03-26 15:00:00 14 17 Nordeste 38 Este 0 924 -1.1 32
2020-03-26 14:00:00 13.3 20 Nordeste 37 Nordeste 0 924.3 -1.1 34
2020-03-26 13:00:00 12.8 22 Nordeste 44 Nordeste 0 924.8 -0.9 34
2020-03-26 12:00:00 11.7 20 Nordeste 40 Este 0 925.1 -0.6 40
2020-03-26 11:00:00 10.8 17 Este 32 Nordeste 0 925.4 -0.2 49
2020-03-26 10:00:00 8.4 17 Nordeste 30 Nordeste 0 925.7 0.3 73
2020-03-26 09:00:00 5 15 Nordeste 21 Norte 0 925.7 0.4 98
2020-03-26 08:00:00 3.2 11 Norte 15 Norte 0 925.6 0 98
2020-03-26 07:00:00 2.8 6 Nordeste 12 Nordeste 0 925.4 -0.5 98
2020-03-26 06:00:00 3.5 5 Nordeste 8 Sudeste 0 925.3 -1.2 98
2020-03-26 05:00:00 3.6 5 Sudeste 10 Sur 0 925.6 -1.7 98
2020-03-26 04:00:00 3.6 6 Sudeste 8 Sudeste 0 925.9 -1.8 97
2020-03-26 03:00:00 3.7 7 Sudeste 10 Sudeste 0 926.5 -1.8 96
2020-03-26 02:00:00 4.1 6 Sur 11 Sur 0 927.3 -2 95
2020-03-26 01:00:00 5.3 7 Sudoeste 18 Sudoeste 0 927.7 -1.6 96
2020-03-26 00:00:00 5.9 8 Sudoeste -- -- 0 928.3 -1 93
2020-03-25 23:00:00 7.1 9 Sudoeste -- -- 0 929.3 0.3 87
2020-03-25 22:00:00 7 10 Sudoeste 20 Sudoeste 0 929.3 0.4 89
2020-03-25 21:00:00 7.7 14 Oeste -- -- 0 929.3 0.9 84
2020-03-25 20:00:00 8.1 -- -- -- -- 0 929 0.4 81
2020-03-25 19:00:00 9.3 -- -- -- -- 0 928.9 -0.5 72
2020-03-25 18:00:00 13.7 14 Norte 29 Norte 0 928.4 -1.7 45
2020-03-25 17:00:00 13.8 22 Norte 30 Norte 0 928.6 -2.3 45
2020-03-25 16:00:00 11.7 9 Norte 20 Norte 0 929.4 -2.2 58
2020-03-25 15:00:00 12.6 9 Norte 18 Noroeste 0 930.1 -1.7 56
2020-03-25 14:00:00 11.9 4 Sudoeste 14 Norte 0 930.9 -1.2 61
2020-03-25 13:00:00 11 3 Nordeste 13 Sudoeste 0 931.6 -0.6 67
2020-03-25 12:00:00 9.2 8 Sur 16 Sur 0 931.8 -0.1 71
2020-03-25 11:00:00 7.8 8 Sudeste 17 Sur 0 932.1 0.4 76
2020-03-25 10:00:00 6.2 7 Sudeste 12 Este 0 932.2 0.4 84
2020-03-25 09:00:00 3.8 4 Nordeste 12 Sudoeste 0 931.9 0.5 93
2020-03-25 08:00:00 1.6 4 Sur 7 Sudoeste 0 931.7 0.1 96
2020-03-25 07:00:00 1.3 2 Sudoeste 8 Este 0 931.8 -0.1 94
2020-03-25 06:00:00 2.6 6 Sudoeste 9 Sudoeste 0 931.4 -0.7 95
2020-03-25 05:00:00 2.2 6 Sudeste 15 Este 0 931.6 -0.9 94
2020-03-25 04:00:00 2.6 9 Este 13 Este 0 931.9 -0.4 93
2020-03-25 03:00:00 4 8 Sur 15 Sur 0 932.1 -0.1 92
2020-03-25 02:00:00 5 7 Sudoeste 22 Sudoeste 0 932.5 0.5 90
2020-03-25 01:00:00 6.1 15 Sur 34 Sudoeste 0 932.3 -0.1 87
2020-03-25 00:00:00 6.5 22 Sur 36 Sur 0 932.2 -0.2 83
2020-03-24 23:00:00 6.6 17 Sudoeste 25 Sudoeste 0 932 0.3 86
2020-03-24 22:00:00 7.1 12 Sur 24 Sur 0 932.4 1 83
2020-03-24 21:00:00 6.7 13 Sudeste 24 Sur 0 932.4 1.4 87
2020-03-24 20:00:00 7.3 15 Sur 35 Sur 0 931.7 1.2 86
2020-03-24 19:00:00 8.5 21 Sur 39 Sur 0 931.4 0.9 79
2020-03-24 18:00:00 9.1 27 Sur 41 Sur 0 931 0.5 78
2020-03-24 17:00:00 9.4 27 Sur 48 Sur 0 930.5 0 75
2020-03-24 16:00:00 9.8 31 Sur 48 Sur 0 930.5 -0.2 76
2020-03-24 15:00:00 10.3 35 Sur 54 Sur 0 930.5 -0.4 73
2020-03-24 14:00:00 10.5 35 Sur 60 Sudeste 0 930.5 -0.4 72
2020-03-24 13:00:00 10.8 36 Sur 57 Sur 0 930.7 -0.1 72
2020-03-24 12:00:00 10.7 37 Sur 57 Sur 0 930.9 0.5 76
2020-03-24 11:00:00 9.8 31 Sur 59 Sur 0 930.9 0.6 78
2020-03-24 10:00:00 8.9 33 Sur 54 Sur 0 930.8 0.8 84
2020-03-24 09:00:00 8.8 27 Sur 43 Sur 0 930.4 0.4 88
2020-03-24 08:00:00 8.3 23 Sur 36 Sur 0.2 930.3 0.3 92
2020-03-24 07:00:00 8.2 19 Sur 39 Sur 0 930 -0.1 91
2020-03-24 06:00:00 8.2 22 Sur 39 Sur 0.6 930 -0.3 92
2020-03-24 05:00:00 8.5 21 Sur 40 Sur 1.2 930 -0.4 95
2020-03-24 04:00:00 8.8 22 Sur 34 Sur 0.2 930.1 -0.6 92
2020-03-24 03:00:00 8.7 17 Sur 31 Sur 0 930.3 -0.6 90
2020-03-24 02:00:00 9 21 Sur 34 Sur 0 930.4 -0.9 86
2020-03-24 01:00:00 9 23 Sur 38 Sur 0 930.7 -0.4 86
2020-03-24 00:00:00 8.9 24 Sur 44 Sur 0 930.9 0.1 88
2020-03-23 23:00:00 9 24 Sur 41 Sur 0.2 931.3 0.8 89
2020-03-23 22:00:00 9.4 27 Sur -- -- -- 931.1 0.8 86
2020-03-23 21:00:00 9.4 -- -- -- -- 0 930.8 0.9 86
2020-03-23 20:00:00 9.4 -- -- -- -- 0 930.5 1 86
2020-03-23 19:00:00 9.7 -- -- -- -- 0 930.3 0.5 85
2020-03-23 18:00:00 9.6 -- -- -- -- 0.2 929.9 -0.1 88
2020-03-23 17:00:00 12.7 17 Sur 36 Sudoeste 0 929.5 -1.1 62
2020-03-23 16:00:00 11.5 18 Sur 36 Sur 0 929.8 -0.6 70
2020-03-23 15:00:00 11.2 19 Sudoeste 39 Sudoeste 0 930 -0.7 77
2020-03-23 14:00:00 10.4 19 Sur 37 Sur 0.2 930.6 0 85
2020-03-23 13:00:00 12.5 18 Sudoeste 31 Sudoeste 0 930.4 -0.1 67
2020-03-23 12:00:00 12 16 Sudoeste 36 Sudoeste 0 930.7 0.6 70
2020-03-23 11:00:00 11.8 18 Sudoeste 33 Sur 0 930.6 1 73
2020-03-23 10:00:00 9.6 15 Sur 35 Sur 0 930.5 1.2 86
2020-03-23 09:00:00 9 18 Sur 31 Sur 0 930.1 1.1 93
2020-03-23 08:00:00 7.9 18 Sur 28 Sur 0 929.6 0.7 94
2020-03-23 07:00:00 7.5 14 Sur 24 Sur 0.2 929.3 0.4 96
2020-03-23 06:00:00 7.5 13 Sur 19 Sur 0 929 0 96
2020-03-23 05:00:00 7.1 7 Sur 18 Sur 0.6 928.9 -0.4 96
2020-03-23 04:00:00 7.3 8 Sudoeste 15 Sur 1.4 928.9 -0.4 97
2020-03-23 03:00:00 7.3 6 Sur 13 Sur 0.4 929 -0.4 97
2020-03-23 02:00:00 7.3 7 Sur 14 Sur 0 929.3 0 95
2020-03-23 01:00:00 7.4 10 Sur 26 Sur 0 929.3 0.3 94
2020-03-23 00:00:00 7.8 13 Sur 25 Sudoeste 0 929.4 0.9 94
2020-03-22 23:00:00 7.9 14 Sur 30 Sur 0 929.3 1.5 95
2020-03-22 22:00:00 8 12 Sur 24 Sur 2 929 1.5 95
2020-03-22 21:00:00 8.2 10 Sur 21 Sur 0 928.5 1.9 94
2020-03-22 20:00:00 7.8 10 Sur 24 Sur 0.6 927.8 1.4 95
2020-03-22 19:00:00 8.2 14 Sur 29 Sur 0.2 927.5 1 93
2020-03-22 18:00:00 9.3 18 Sur 32 Sur 0 926.6 0.1 86
2020-03-22 17:00:00 8.7 18 Sur 30 Sur 0.2 926.4 -0.3 87
2020-03-22 16:00:00 8.5 14 Sudoeste 28 Sudoeste 1.4 926.5 -0.6 90
2020-03-22 15:00:00 8.5 11 Sudoeste 21 Oeste 1 926.5 -0.9 91
2020-03-22 14:00:00 9.1 10 Sudoeste 24 Sudoeste 0.2 926.7 -0.8 87
2020-03-22 13:00:00 10.4 9 Sudoeste 22 Sudoeste 0 927.1 -0.3 78
2020-03-22 12:00:00 10.2 15 Sudoeste 24 Sudoeste 0 927.4 0.3 80
2020-03-22 11:00:00 8.8 10 Sudoeste 23 Sudoeste 0 927.5 0.5 85
2020-03-22 10:00:00 8.5 18 Sur 26 Sur 0 927.4 0.7 86
2020-03-22 09:00:00 6.2 10 Sudeste -- -- 0 927.1 0.8 97
2020-03-22 08:00:00 4.2 -- -- -- -- 0 927 0.7 97
2020-03-22 07:00:00 3.7 9 Sudeste 13 Sudeste 0 926.7 0 97
2020-03-22 06:00:00 4.1 8 Este -- -- 0 926.3 -0.7 97
2020-03-22 05:00:00 5 10 Sur 17 Sur 0 926.3 -1.1 97
2020-03-22 04:00:00 5.3 10 Sur 14 Sur 0 926.7 -1.1 96
2020-03-22 03:00:00 5.5 4 Sudoeste 14 Sudoeste 0 927 -1.1 96
2020-03-22 02:00:00 5.6 8 Sur 18 Sudoeste 0 927.4 -0.8 96
2020-03-22 01:00:00 5.6 8 Sur 17 Sur 0 927.8 -0.5 96
2020-03-22 00:00:00 5.7 10 Sudoeste 19 Sudoeste 0 928.1 -0.1 95
2020-03-21 23:00:00 5.7 8 Sur 17 Sudoeste 0 928.2 0 96
2020-03-21 22:00:00 5.9 7 Sur 19 Sur 0 928.3 0.6 95
2020-03-21 21:00:00 6 9 Sur 15 Sur 0.2 928.2 0.8 96
2020-03-21 20:00:00 6.4 9 Sur 15 Sur 0.4 928.2 0.6 94
2020-03-21 19:00:00 6.8 9 Sur -- -- 1.6 927.7 0 92
2020-03-21 18:00:00 7.3 5 Sudeste 11 Nordeste 1.4 927.4 -0.9 88
2020-03-21 17:00:00 8 3 Este 9 Este 0.8 927.6 -1.2 87
2020-03-21 16:00:00 7.9 6 Este 16 Norte 0 927.7 -1.2 90
2020-03-21 15:00:00 7.5 12 Nordeste -- -- 0.6 928.3 -0.9 92
2020-03-21 14:00:00 7.7 12 Noroeste -- -- 0 928.8 0 88
2020-03-21 13:00:00 7.5 -- -- -- -- 0 928.9 0.1 89
2020-03-21 12:00:00 7.4 17 Norte -- -- 0 929.2 0.6 87
2020-03-21 11:00:00 9.4 17 Sudoeste 36 Sudoeste 0 928.8 0.3 83
2020-03-21 10:00:00 9.5 20 Sudoeste -- -- 0 928.8 0.3 82
2020-03-21 09:00:00 8.7 19 Sudoeste 32 Sudoeste 0 928.6 0 87
2020-03-21 08:00:00 7.9 13 Sur 26 Sur 0 928.5 -0.2 90
2020-03-21 07:00:00 7.8 13 Sur 26 Sur 0 928.5 -0.5 91
2020-03-21 06:00:00 7.7 14 Sur 26 Sur 0 928.6 -0.9 92
2020-03-21 05:00:00 7.7 13 Sur 24 Sur 0 928.7 -1.4 91
2020-03-21 04:00:00 7.7 13 Sur 26 Sur 0 929 -1.6 90
2020-03-21 03:00:00 7.5 14 Sur 28 Sur 0 929.5 -1.6 92
2020-03-21 02:00:00 7.5 16 Sur 31 Sur 0 930.1 -1.2 90
2020-03-21 01:00:00 7.9 15 Sur 34 Sur 0 930.6 -0.7 85
2020-03-21 00:00:00 7.3 15 Sur 37 Sur 0 931.1 0 85
2020-03-20 23:00:00 7.6 20 Sur 39 Sur 0 931.3 0.4 82
2020-03-20 22:00:00 7.8 18 Sur 36 Sur 0 931.3 0.3 80
2020-03-20 21:00:00 7.8 21 Sur 34 Sur 0 931.1 0.2 83
2020-03-20 20:00:00 8.1 22 Sur 40 Sur 0 930.9 -0.2 84
2020-03-20 19:00:00 8.9 22 Sur 44 Sur 0 931 -0.5 85
2020-03-20 18:00:00 10.4 24 Sur 38 Sur 0 930.9 -0.9 79
2020-03-20 17:00:00 10.4 26 Sur 42 Sur 0 931.1 -0.8 80
2020-03-20 16:00:00 10.6 24 Sur 46 Sur 0 931.5 -0.9 78
2020-03-20 15:00:00 10.8 23 Sur 45 Sur 0 931.8 -0.9 76
2020-03-20 14:00:00 12 22 Sur 42 Sudoeste 0 931.9 -1.1 65
2020-03-20 13:00:00 11.1 21 Sur 39 Sur 0 932.4 -0.5 71
2020-03-20 12:00:00 11.2 20 Sudoeste 41 Sudoeste 0 932.7 -0.1 69
2020-03-20 11:00:00 10.1 19 Sur 38 Sur 0 933 0.6 76
2020-03-20 10:00:00 9.3 19 Sudoeste 40 Sur 0 932.9 0.6 82
2020-03-20 09:00:00 8.6 21 Sur 37 Sur 0 932.8 0.8 86
2020-03-20 08:00:00 7.9 17 Sur 33 Sur 0 932.4 0.2 90
2020-03-20 07:00:00 7.3 14 Sur 26 Sur 0 932.3 -0.1 94
2020-03-20 06:00:00 6.8 12 Sur 28 Sur 0 932 -1 94
2020-03-20 05:00:00 6.9 18 Sur 27 Sur 0 932.2 -1.2 94
2020-03-20 04:00:00 7.1 16 Sur 28 Sur 0 932.4 -1 93
2020-03-20 03:00:00 7.4 16 Sur 26 Sur 0 933 -0.7 90
2020-03-20 02:00:00 8.6 14 Sur 33 Sur 0 933.4 -0.6 80
2020-03-20 01:00:00 8.9 19 Sur 40 Sudoeste 0 933.4 -0.7 81
2020-03-20 00:00:00 9.1 17 Sur 39 Sur 0 933.7 -0.3 82
2020-03-19 23:00:00 9.2 21 Sur 39 Sur 0 934 0.1 84
2020-03-19 22:00:00 9.5 17 Sur 35 Sur 0 934.1 0.5 83
2020-03-19 21:00:00 9.9 19 Sur 38 Sur 0 934 0.4 84
2020-03-19 20:00:00 10.3 21 Sur 41 Sur 0 933.9 0.1 80
2020-03-19 19:00:00 10.6 25 Sur 42 Sur 0 933.6 -0.5 78
2020-03-19 18:00:00 11.1 25 Sur 42 Sur 0 933.6 -1 74
2020-03-19 17:00:00 12 20 Sur 43 Sur 0 933.8 -1.7 70
2020-03-19 16:00:00 12.5 22 Sur 40 Sur 0 934.1 -2.2 66
2020-03-19 15:00:00 13.3 22 Sur 37 Sur 0 934.6 -2.2 64
2020-03-19 14:00:00 12.5 19 Sur 43 Sur 0 935.5 -1.7 65
2020-03-19 13:00:00 12.1 19 Sur 38 Sudoeste 0 936.3 -1 62
2020-03-19 12:00:00 11.7 21 Sudoeste 41 Sudoeste 0 936.8 -0.3 62
2020-03-19 11:00:00 11.4 22 Sur 40 Sudoeste 0 937.2 0.2 65
2020-03-19 10:00:00 10.5 20 Sur 33 Sur 0 937.3 0.3 70
2020-03-19 09:00:00 8.6 17 Sur 27 Sur 0 937.1 0.1 85
2020-03-19 08:00:00 6.1 14 Sur 21 Sur 0 937 -0.1 94
2020-03-19 07:00:00 5.3 12 Sur 28 Sur 0 937 -0.4 94
2020-03-19 06:00:00 6.1 21 Sur 31 Sur 0 937 -0.7 92
2020-03-19 05:00:00 6.1 22 Sur 31 Sur 0 937.1 -1 92
2020-03-19 04:00:00 6.1 15 Sur 32 Sur 0 937.4 -1.2 92
2020-03-19 03:00:00 6.6 22 Sur 36 Sur 0 937.7 -1.6 90
2020-03-19 02:00:00 6.9 16 Sur 30 Sur 0 938.1 -1.5 93
2020-03-19 01:00:00 7 17 Sur 27 Sudoeste 0 938.6 -1 91
2020-03-19 00:00:00 7.6 13 Sur 32 Sur 0 939.3 0.1 88
2020-03-18 23:00:00 8.2 15 Sur 28 Sur 0 939.6 0.8 84
2020-03-18 22:00:00 8.5 12 Sur 19 Sur 0 939.6 0.9 81
2020-03-18 21:00:00 9.7 11 Sur 23 Sur 0 939.2 0.9 66
2020-03-18 20:00:00 10.6 15 Sur 25 Sudoeste 0 938.8 0.6 61
2020-03-18 19:00:00 12.1 14 Sudoeste 34 Sur 0 938.7 -0.1 57
2020-03-18 18:00:00 13.6 18 Sur 36 Sur 0 938.3 -0.8 56
2020-03-18 17:00:00 14.3 20 Sur 41 Sur 0 938.2 -1.6 54
2020-03-18 16:00:00 14.1 23 Sur 40 Sur 0 938.8 -1.7 57
2020-03-18 15:00:00 13.2 21 Sur 40 Sudoeste 0 939.1 -1.9 59
2020-03-18 14:00:00 12.1 23 Sur 41 Sur 0 939.8 -1.2 61
2020-03-18 13:00:00 12.3 22 Sur 38 Sur 0 940.5 -0.5 67
2020-03-18 12:00:00 11.5 20 Sur 42 Sur 0 941 0.2 70
2020-03-18 11:00:00 11.4 22 Sur 48 Sur 0 941 0.2 74
2020-03-18 10:00:00 10.2 24 Sur 41 Sur 0 941 0.3 79
2020-03-18 09:00:00 9 24 Sur 42 Sur 0 940.8 0 85
2020-03-18 08:00:00 8.5 20 Sur 33 Sur 0 940.8 -0.2 87
2020-03-18 07:00:00 8.4 21 Sur 34 Sur 0 940.7 0 86
2020-03-18 06:00:00 8.4 18 Sur 30 Sur 0 940.8 0.3 87
2020-03-18 05:00:00 8.3 15 Sur 34 Sur 0 941 0.4 87
2020-03-18 04:00:00 8.3 16 Sur 32 Sur 0 940.7 0.2 86
2020-03-18 03:00:00 8.5 11 Sur 28 Sur 0 940.5 -0.8 86
2020-03-18 02:00:00 8.8 15 Sur 34 Sur 0 940.6 -0.5 86
2020-03-18 01:00:00 9.1 24 Sur 48 Sur 0 940.5 0.1 85
2020-03-18 00:00:00 9.9 18 Sur 37 Sur 0 941.3 1.2 83
2020-03-17 23:00:00 9.9 19 Sudoeste 36 Sur 0 941.1 1.2 86
2020-03-17 22:00:00 10.2 23 Sur 52 Sur 0 940.4 1.2 86
2020-03-17 21:00:00 10.8 25 Sur 47 Sur 0 940.1 1.3 84
2020-03-17 20:00:00 11.5 19 Sur 36 Sur 0 939.9 1.6 84
2020-03-17 19:00:00 11.9 26 Sur 42 Sur 0 939.2 0.9 84
2020-03-17 18:00:00 12.1 29 Sur 45 Sudeste 0 938.8 0.4 86
2020-03-17 17:00:00 12.2 24 Sudeste 40 Sur 0 938.3 -0.2 82
2020-03-17 16:00:00 12.5 24 Sur 41 Sur 0 938.3 0 81
2020-03-17 15:00:00 12.7 26 Sur 43 Sur 0 938.4 -0.2 78
2020-03-17 14:00:00 12.5 23 Sur 53 Sur 0 938.5 0.1 76
2020-03-17 13:00:00 11.4 33 Sur 53 Sur 0 938.3 0.3 78
2020-03-17 12:00:00 11.8 24 Sur 47 Sur 0 938.6 1.5 73
2020-03-17 11:00:00 10.8 19 Sur 38 Sur 0 938.4 2 72
2020-03-17 10:00:00 9.3 16 Sur 30 Sur 0 938 2.2 83
2020-03-17 09:00:00 8 15 Sur 31 Sur 0 937.1 2.2 89
2020-03-17 08:00:00 6.9 18 Sur 27 Sur 0 936.4 2.2 95
2020-03-17 07:00:00 6 7 Oeste 22 Sudeste 0 935.8 1.6 95
2020-03-17 06:00:00 3.8 4 Oeste 10 Noroeste 0 934.9 0.9 96
2020-03-17 05:00:00 3.6 6 Sudeste 12 Sudeste 0 934.2 0.1 97
2020-03-17 04:00:00 1.5 5 Sudeste 8 Sudeste 0 934.2 0.4 96
2020-03-17 03:00:00 1.8 3 Sudeste 6 Sudeste 0 934 0.1 96
2020-03-17 02:00:00 1.9 3 Este 8 Este 0 934.1 0.6 96
2020-03-17 01:00:00 1.8 8 Sudeste 13 Sudeste 0 933.8 1.4 95
2020-03-17 00:00:00 1.9 8 Sudeste 12 Sudeste 0 933.9 2.3 94
2020-03-16 23:00:00 3.1 5 Sur 12 Sudoeste 0 933.5 2.7 91
2020-03-16 22:00:00 3.3 3 Sudoeste 13 Sur 0 932.4 2.4 91
2020-03-16 21:00:00 3.9 8 Sudeste 12 Sudeste 0 931.6 2.5 89
2020-03-16 20:00:00 5 4 Sur 19 Sur 0 930.8 1.9 85
2020-03-16 19:00:00 6.2 10 Sur 22 Sur 0.2 930 1.4 79
2020-03-16 18:00:00 7.8 14 Sur 22 Sur 0 929.1 0.6 70
2020-03-16 17:00:00 8.5 7 Oeste 16 Noroeste 0 928.9 0.4 60
2020-03-16 16:00:00 8 4 Este 15 Este 0 928.6 0.3 57
2020-03-16 15:00:00 7.3 7 Nordeste 24 Noroeste 0 928.5 -0.1 63
2020-03-16 14:00:00 6.8 10 Norte 24 Nordeste 0 928.5 -0.3 64
2020-03-16 13:00:00 6.2 17 Norte 27 Norte 0 928.3 -0.2 72
2020-03-16 12:00:00 5.1 13 Norte 28 Norte 0 928.6 1 74
2020-03-16 11:00:00 3.8 18 Norte -- -- -- 928.8 1.5 83
2020-03-16 10:00:00 3.8 -- -- -- -- 0 928.5 1.8 88
2020-03-16 09:00:00 3.2 15 Noroeste 28 Noroeste 0.8 927.6 1.8 92
2020-03-16 08:00:00 3.2 18 Noroeste -- -- 1 927.3 2.2 92
2020-03-16 07:00:00 4.6 -- -- -- -- 0.8 926.7 1.6 90
2020-03-16 06:00:00 7.1 -- -- -- -- 0.8 925.8 -0.3 91
2020-03-16 05:00:00 9.5 17 Noroeste -- -- 4 925.1 -2.3 94
2020-03-16 04:00:00 10.2 -- -- -- -- 1.2 925.1 -2.9 95
2020-03-16 03:00:00 10 17 Sudoeste -- -- 0.4 926.1 -3 96
2020-03-16 02:00:00 10.2 -- -- -- -- 0.2 927.4 -1.9 93
2020-03-16 01:00:00 10.2 -- -- -- -- 0 928 -1 90
2020-03-16 00:00:00 10.7 5 Sur 15 Sur 0 929.1 0.2 86
2020-03-15 23:00:00 11.6 -- -- -- -- 0 929.3 1.3 84
2020-03-15 22:00:00 11.3 -- -- -- -- 0.4 929 0.8 85
2020-03-15 21:00:00 11.2 13 Sur 26 Sur 0.8 928.9 0.7 85
2020-03-15 20:00:00 11.1 -- -- -- -- 0 928 0.3 84
2020-03-15 19:00:00 12.1 -- -- -- -- 0.2 928.2 0 76
2020-03-15 18:00:00 14.1 9 Sudoeste 27 Sudoeste 5.6 928.2 -0.7 82
2020-03-15 17:00:00 18.4 13 Sudoeste 33 Sudoeste 0 927.7 -2.7 54
2020-03-15 16:00:00 19.9 18 Oeste 32 Oeste 0 928.2 -3.2 49
2020-03-15 15:00:00 19.3 12 Sudoeste 27 Oeste 0 928.9 -3.4 50
2020-03-15 14:00:00 18.5 12 Sudoeste 21 Sudoeste 0 930.4 -2.6 54
2020-03-15 13:00:00 17.7 12 Sudoeste 24 Sur 0 931.4 -2 58
2020-03-15 12:00:00 16 12 Sudoeste 24 Sudoeste 0 932.3 -0.9 64
2020-03-15 11:00:00 12.2 16 Sudoeste 29 Sur 0 933 0 81
2020-03-15 10:00:00 10.6 15 Sudoeste 30 Sudoeste 0 933.4 0.6 90
2020-03-15 09:00:00 9.6 15 Sudoeste 27 Sudoeste 0 933.2 0.3 96
2020-03-15 08:00:00 8.9 13 Sur 25 Sur 0 933 0 98
2020-03-15 07:00:00 8.7 14 Sur 26 Sur 0 932.8 -0.5 98
2020-03-15 06:00:00 8.6 12 Sur 29 Sur 0 932.9 -0.7 97
2020-03-15 05:00:00 9 17 Sudoeste 29 Sur 0 933 -1 92
2020-03-15 04:00:00 8.4 9 Sur 17 Sur 0 933.3 -0.7 89
2020-03-15 03:00:00 9.1 10 Sur 19 Sur 0 933.6 -0.7 87
2020-03-15 02:00:00 10.2 10 Sur 21 Sur 0 934 -0.4 85
2020-03-15 01:00:00 10.8 10 Sur 22 Sur 0 934 0 83
2020-03-15 00:00:00 11.7 10 Sur 22 Sur 0 934.3 0.5 77
2020-03-14 23:00:00 12.4 9 Sur 15 Sur 0 934.4 0.8 71
2020-03-14 22:00:00 13.3 9 Sudoeste 15 Sudoeste 0 934 0.8 67
2020-03-14 21:00:00 14.8 6 Sudoeste 10 Sudoeste 0 933.8 0.8 58
2020-03-14 20:00:00 15.9 6 Sur 8 Sur 0 933.6 0.5 53
2020-03-14 19:00:00 19.2 5 Oeste 12 Sudoeste 0 933.2 0 42
2020-03-14 18:00:00 20.3 4 Sudoeste 13 Oeste 0 933 -0.7 39
2020-03-14 17:00:00 21.7 3 Noroeste 15 Noroeste 0 933.1 -1.4 38
2020-03-14 16:00:00 21.9 9 Noroeste 23 Nordeste 0 933.2 -2.1 39
2020-03-14 15:00:00 21 8 Norte 18 Sur 0 933.7 -2.2 41
2020-03-14 14:00:00 20 4 Sudoeste 20 Oeste 0 934.5 -1.7 43
2020-03-14 13:00:00 18.5 10 Oeste 19 Oeste 0 935.3 -0.9 48
2020-03-14 12:00:00 16.6 9 Oeste 17 Sudoeste 0 935.9 -0.1 54
2020-03-14 11:00:00 15.5 5 Sur 12 Sur 0 936.2 1 56
2020-03-14 10:00:00 12.7 8 Sur 18 Sudeste 0 936.2 1.3 66
2020-03-14 09:00:00 9.8 10 Este 19 Este 0 936 1.6 79
2020-03-14 08:00:00 5.9 5 Sudeste 11 Sudeste 0 935.2 0.9 91
2020-03-14 07:00:00 5.6 10 Este 15 Este 0 934.9 0.6 92
2020-03-14 06:00:00 5.6 9 Este 13 Este 0 934.4 -0.2 90
2020-03-14 05:00:00 6.7 4 Sudeste 12 Sudeste 0 934.3 -0.5 87
2020-03-14 04:00:00 7.9 5 Sur 14 Sudeste 0 934.3 -0.3 88
2020-03-14 03:00:00 8.5 10 Sudeste 15 Sudeste 0 934.6 0.2 86
2020-03-14 02:00:00 8.9 11 Sur 18 Sur 0 934.8 0.4 84
2020-03-14 01:00:00 9.6 9 Sudeste 20 Sur 0 934.6 0.7 81
2020-03-14 00:00:00 10.5 9 Sur 23 Sur 0 934.4 0.8 78
2020-03-13 23:00:00 11.1 12 Sur 25 Sur 0 934.4 1.3 74
2020-03-13 22:00:00 11.7 12 Sur 27 Sur 0 933.9 1.3 74
2020-03-13 21:00:00 12.7 16 Sur 28 Sur 0 933.6 1.7 70
2020-03-13 20:00:00 14.2 14 Sur 25 Sur 0 933.1 1.1 63
2020-03-13 19:00:00 16.5 14 Sudeste 33 Sur 0 932.6 0.2 55
2020-03-13 18:00:00 18.8 18 Sur 30 Sudoeste 0 931.9 -0.7 47
2020-03-13 17:00:00 20.4 14 Sur 27 Sudoeste 0 932 -1.4 41
2020-03-13 16:00:00 20.7 13 Sur 30 Sur 0 932.4 -1.6 38
2020-03-13 15:00:00 20.2 17 Sur 30 Sur 0 932.6 -1.9 39
2020-03-13 14:00:00 19.4 14 Sudoeste 30 Sur 0 933.4 -1.4 42
2020-03-13 13:00:00 18.7 17 Sudoeste 37 Sudoeste 0 934 -0.8 46
2020-03-13 12:00:00 17.6 18 Sur 32 Sudoeste 0 934.5 0 48
2020-03-13 11:00:00 16.4 14 Sur 26 Sur 0 934.8 0.9 49
2020-03-13 10:00:00 14.2 13 Sur 24 Sur 0 934.8 1.3 60
2020-03-13 09:00:00 10.5 5 Sur 10 Este 0 934.5 1.3 78
2020-03-13 08:00:00 8.6 8 Sudeste 12 Este 0 933.9 0.9 80
2020-03-13 07:00:00 8.2 6 Este 13 Este 0 933.5 0.5 82
2020-03-13 06:00:00 9 -- -- -- -- -- 933.2 -0.2 80
2020-03-13 05:00:00 8.4 8 Este 12 Este 0 933 -0.5 81
2020-03-13 04:00:00 9.4 7 Este 10 Este 0 933 -0.6 76
2020-03-13 03:00:00 9.9 5 Este 11 Este 0 933.4 -0.5 75
2020-03-13 02:00:00 10.9 5 Este 8 Este 0 933.5 -0.2 73
2020-03-13 01:00:00 12 8 Este 12 Este 0 933.6 -0.1 69
2020-03-13 00:00:00 13.1 8 Este 12 Este 0 933.9 0.5 65
2020-03-12 23:00:00 13.7 9 Este 12 Este 0 933.7 0.5 62
2020-03-12 22:00:00 14.7 4 Norte 15 Noroeste 0 933.7 0.7 55
2020-03-12 21:00:00 16.8 6 Sur 9 Sudoeste 0 933.4 0.9 48
2020-03-12 20:00:00 19.4 5 Sudeste 12 Sudoeste 0 933.2 0.6 42
2020-03-12 19:00:00 22.8 8 Sudoeste 20 Sudoeste 0 933 -0.2 32
2020-03-12 18:00:00 25.3 11 Sudoeste 21 Sudoeste 0 932.5 -1.5 28
2020-03-12 17:00:00 26.5 3 Sudoeste 19 Oeste 0 932.6 -2.6 25
2020-03-12 16:00:00 27.1 4 Nordeste 18 Sudoeste 0 933.2 -3 25
2020-03-12 15:00:00 26.8 7 Oeste 17 Oeste 0 934 -2.7 26
2020-03-12 14:00:00 25.7 8 Sudoeste 21 Oeste 0 935.2 -1.7 28
2020-03-12 13:00:00 24.3 10 Sudoeste 18 Oeste 0 936.2 -1 32
2020-03-12 12:00:00 22.2 8 Sudoeste 19 Sudoeste 0 936.7 -0.4 40
2020-03-12 11:00:00 19.7 9 Sudoeste 18 Sudoeste 0 936.9 0 46
2020-03-12 10:00:00 16.8 7 Sur 14 Sudeste 0 937.2 0.3 56
2020-03-12 09:00:00 12.5 8 Sudeste 14 Sudeste 0 937.1 0.2 66
2020-03-12 08:00:00 8.1 11 Sudeste 17 Este 0 936.9 -0.1 78
2020-03-12 07:00:00 6.8 6 Sudeste 13 Sudeste 0 936.9 -0.5 81
2020-03-12 06:00:00 7.4 10 Este 19 Este 0 936.9 -1.1 79
2020-03-12 05:00:00 7.3 15 Este 18 Este 0 937 -1.4 81
2020-03-12 04:00:00 8.2 9 Este 13 Este 0 937.4 -1.3 77
2020-03-12 03:00:00 9 11 Este 18 Este 0 938 -0.7 75
2020-03-12 02:00:00 10.3 11 Este 16 Este 0 938.4 -0.1 71
2020-03-12 01:00:00 9.7 9 Este 13 Este 0 938.7 0.4 72
2020-03-12 00:00:00 11.2 7 Sudeste 14 Este 0 938.7 0.4 68
2020-03-11 23:00:00 12.7 8 Este 15 Este 0 938.5 0.4 66
2020-03-11 22:00:00 12.9 11 Este 14 Este 0 938.3 0.2 68
2020-03-11 21:00:00 15 10 Este 14 Este 0 938.3 0.3 61
2020-03-11 20:00:00 17.4 9 Este 11 Este 0 938.1 0.3 56
2020-03-11 19:00:00 21.5 6 Norte 10 Norte 0 938.1 0 43
2020-03-11 18:00:00 24.4 8 Norte 14 Noroeste 0 938 -0.5 35
2020-03-11 17:00:00 26.3 7 Norte 20 Nordeste 0 937.8 -1.4 29
2020-03-11 16:00:00 26.4 4 Norte 17 Nordeste 0 938.1 -2 29
2020-03-11 15:00:00 25.6 4 Norte 17 Nordeste 0 938.5 -2.1 33
2020-03-11 14:00:00 24.3 8 Noroeste 16 Nordeste 0 939.2 -1.8 36
2020-03-11 13:00:00 22.5 8 Norte 17 Norte 0 940.1 -0.9 41
2020-03-11 12:00:00 20.2 12 Norte 18 Norte 0 940.6 -0.3 49
2020-03-11 11:00:00 18.4 2 Sudeste 9 Este 0 941 0.2 54
2020-03-11 10:00:00 14.4 6 Este 11 Este 0 941 0.6 62
2020-03-11 09:00:00 10.5 8 Este 15 Este 0 940.9 0.6 70
2020-03-11 08:00:00 6.5 9 Este 14 Este 0 940.8 0.6 80
2020-03-11 07:00:00 5 10 Este 15 Este 0 940.4 -0.1 86
2020-03-11 06:00:00 4.8 10 Este 13 Este 0 940.3 -0.6 84
2020-03-11 05:00:00 5.5 7 Este 14 Este 0 940.2 -1.1 82
2020-03-11 04:00:00 6.4 10 Este 13 Este 0 940.5 -0.9 81
2020-03-11 03:00:00 6.7 6 Este 12 Este 0 940.9 -0.7 78
2020-03-11 02:00:00 7.3 9 Este 12 Este 0 941.3 -0.4 76
2020-03-11 01:00:00 8.2 5 Este 8 Este 0 941.4 0.2 70
2020-03-11 00:00:00 9.9 4 Sur 13 Norte 0 941.6 0.6 65
2020-03-10 23:00:00 11.5 11 Norte 16 Norte 0 941.7 1 60
2020-03-10 22:00:00 13.3 6 Sudeste 15 Nordeste 0 941.2 0.9 54
2020-03-10 21:00:00 14.7 13 Nordeste 17 Nordeste 0 941 0.9 49
2020-03-10 20:00:00 15.5 11 Nordeste 15 Nordeste 0 940.7 0.7 47
2020-03-10 19:00:00 18.6 9 Nordeste 19 Norte 0 940.3 0 39
2020-03-10 18:00:00 21.4 11 Norte 27 Norte 0 940.1 -0.7 35
2020-03-10 17:00:00 21.9 18 Norte 26 Norte 0 940 -1.4 34
2020-03-10 16:00:00 21.9 20 Nordeste 29 Nordeste 0 940.3 -1.9 31
2020-03-10 15:00:00 21 15 Norte 28 Norte 0 940.8 -2 34
2020-03-10 14:00:00 19.5 17 Norte 31 Nordeste 0 941.4 -1.5 37
2020-03-10 13:00:00 17.7 21 Norte 30 Norte 0 942.2 -0.5 39
2020-03-10 12:00:00 15.2 14 Norte 26 Norte 0 942.8 0.2 45
2020-03-10 11:00:00 13.2 13 Norte 19 Norte 0 942.9 0.7 48
2020-03-10 10:00:00 10 9 Norte 16 Norte 0 942.7 0.9 59
2020-03-10 09:00:00 6.5 9 Noroeste 13 Noroeste 0 942.6 1.6 66
2020-03-10 08:00:00 3 7 Norte 12 Norte 0 942.2 1.4 76
2020-03-10 07:00:00 4.2 6 Sudoeste 10 Sudoeste 0 941.8 0.7 70
2020-03-10 06:00:00 7.4 11 Nordeste 31 Nordeste 0 941 -0.3 58
2020-03-10 05:00:00 6.6 14 Nordeste 20 Nordeste 0 940.8 -0.4 62
2020-03-10 04:00:00 5.7 8 Este 12 Este 0 941.1 -0.1 65
2020-03-10 03:00:00 8 9 Este 22 Nordeste 0 941.3 -0.5 55
2020-03-10 02:00:00 8.4 16 Nordeste 22 Nordeste 0 941.2 -0.3 54
2020-03-10 01:00:00 8.6 18 Nordeste 21 Nordeste 0 941.2 0.3 53
2020-03-10 00:00:00 7.7 14 Nordeste 19 Nordeste 0 941.8 1.9 57
2020-03-09 23:00:00 8 10 Nordeste 16 Nordeste 0 941.5 2 56
2020-03-09 22:00:00 9.8 12 Este 22 Nordeste 0 940.9 1.7 50
2020-03-09 21:00:00 10.3 17 Nordeste 26 Nordeste 0 939.9 0.8 48
2020-03-09 20:00:00 9.9 10 Norte 22 Nordeste 0 939.5 0.7 56
2020-03-09 19:00:00 13.2 15 Nordeste 30 Nordeste 0 939.2 0.7 44
2020-03-09 18:00:00 15.4 23 Nordeste 37 Norte 0 939.1 -0.2 40
2020-03-09 17:00:00 16.5 22 Nordeste 44 Nordeste 0 938.8 -1.2 34
2020-03-09 16:00:00 16.6 24 Norte 40 Nordeste 0 938.5 -2.1 32
2020-03-09 15:00:00 15.8 22 Norte 37 Norte 0 939.3 -2.2 43
2020-03-09 14:00:00 15 18 Norte 30 Norte 0 940 -1.1 46
2020-03-09 13:00:00 13.6 17 Nordeste 33 Nordeste 0 940.6 -0.3 48
2020-03-09 12:00:00 12.7 18 Nordeste 30 Nordeste 0 941.5 1.1 56
2020-03-09 11:00:00 10.3 18 Norte 25 Norte 0 941.1 0.8 67
2020-03-09 10:00:00 7.1 19 Norte 28 Norte 0 940.9 1.3 79
2020-03-09 09:00:00 3.9 16 Norte 21 Norte 0 940.4 0.7 92
2020-03-09 08:00:00 1.9 14 Norte 21 Norte 0 940.3 0.7 95
2020-03-09 07:00:00 1.7 20 Norte 22 Norte 0 939.6 0.1 94
2020-03-09 06:00:00 2.3 17 Norte 20 Norte 0 939.7 -0.3 95
2020-03-09 05:00:00 2.6 17 Norte 21 Norte 0 939.6 -0.5 90
2020-03-09 04:00:00 3 13 Norte 15 Norte 0 939.5 -0.5 89
2020-03-09 03:00:00 4.8 10 Norte 12 Norte 0 940 0.5 84
2020-03-09 02:00:00 6.5 3 Sudoeste 10 Noroeste 0 940.1 0.4 75
2020-03-09 01:00:00 6.6 0 Calma 12 Norte 0 940 0.2 70
2020-03-09 00:00:00 7.5 5 Norte 15 Nordeste 0 939.5 0 67